createdAt,value
2018-01-13T00:01:00.835Z,8.10
2018-01-13T00:03:34.523Z,8.20
2018-01-13T00:06:08.486Z,8.20
2018-01-13T00:08:43.042Z,7.90
2018-01-13T00:11:17.533Z,7.90
2018-01-13T00:13:53.083Z,8.10
2018-01-13T00:16:28.110Z,8.20
2018-01-13T00:19:03.137Z,8.00
2018-01-13T00:21:39.412Z,8.10
2018-01-13T00:24:14.546Z,8.30
2018-01-13T00:26:49.293Z,8.20
2018-01-13T00:29:23.999Z,8.20
2018-01-13T00:32:00.536Z,8.00
2018-01-13T00:34:36.661Z,8.00
2018-01-13T00:37:11.559Z,8.10
2018-01-13T00:39:46.284Z,8.20
2018-01-13T00:42:21.628Z,8.30
2018-01-13T01:38:41.867Z,8.00
2018-01-13T01:41:16.554Z,8.00
2018-01-13T01:43:50.263Z,8.00
2018-01-13T01:46:23.909Z,7.80
2018-01-13T01:48:57.666Z,7.90
2018-01-13T01:51:31.530Z,8.00
2018-01-13T01:54:05.240Z,7.90
2018-01-13T01:56:39.857Z,8.20
2018-01-13T01:59:13.935Z,8.20
2018-01-13T02:01:48.363Z,8.40
2018-01-13T02:04:22.370Z,8.40
2018-01-13T02:06:57.016Z,8.40
2018-01-13T02:09:31.163Z,8.40
2018-01-13T02:12:04.926Z,8.20
2018-01-13T02:14:38.895Z,8.40
2018-01-13T02:17:12.680Z,8.20
2018-01-13T02:19:46.593Z,8.10
2018-01-13T02:22:20.294Z,8.10
2018-01-13T02:24:54.234Z,8.40
2018-01-13T02:27:28.117Z,8.20
2018-01-13T02:30:02.063Z,8.10
2018-01-13T02:32:35.725Z,8.30
2018-01-13T02:35:09.545Z,8.00
2018-01-13T02:37:43.479Z,8.10
2018-01-13T02:40:17.261Z,8.10
2018-01-13T02:42:51.121Z,8.10
2018-01-13T02:45:26.572Z,8.20
2018-01-13T02:48:02.796Z,8.20
2018-01-13T02:50:36.697Z,8.20
2018-01-13T02:53:11.360Z,8.00
2018-01-13T02:55:45.986Z,8.10
2018-01-13T02:58:20.731Z,8.00
2018-01-13T03:00:54.729Z,8.00
2018-01-13T03:03:28.548Z,8.00
2018-01-13T03:06:02.522Z,8.00
2018-01-13T03:08:37.158Z,8.20
2018-01-13T03:11:11.363Z,8.20
2018-01-13T03:13:45.198Z,8.10
2018-01-13T03:16:19.164Z,8.20
2018-01-13T03:18:53.149Z,8.20
2018-01-13T03:21:27.979Z,8.20
2018-01-13T03:24:01.973Z,8.20
2018-01-13T03:26:35.946Z,8.20
2018-01-13T03:29:09.620Z,8.10
2018-01-13T03:31:43.506Z,8.20
2018-01-13T03:34:17.372Z,8.30
2018-01-13T03:36:51.047Z,8.30
2018-01-13T03:39:25.821Z,8.40
2018-01-13T03:41:59.967Z,8.40
2018-01-13T03:44:34.410Z,8.30
2018-01-13T03:47:08.486Z,8.30
2018-01-13T03:49:42.250Z,8.20
2018-01-13T03:52:16.072Z,8.20
2018-01-13T03:54:50.501Z,8.30
2018-01-13T03:57:25.247Z,8.30
2018-01-13T03:59:59.159Z,8.20
2018-01-13T04:02:34.676Z,8.10
2018-01-13T04:05:08.682Z,8.10
2018-01-13T04:07:43.920Z,7.80
2018-01-13T04:10:18.709Z,7.80
2018-01-13T04:12:52.794Z,8.10
2018-01-13T04:15:26.647Z,8.00
2018-01-13T04:18:01.206Z,8.10
2018-01-13T04:20:35.276Z,8.10
2018-01-13T04:23:10.185Z,8.40
2018-01-13T04:25:44.018Z,8.30
2018-01-13T04:28:18.754Z,8.30
2018-01-13T04:30:54.479Z,8.20
2018-01-13T04:33:29.741Z,8.20
2018-01-13T04:36:03.705Z,8.20
2018-01-13T04:38:37.707Z,8.30
2018-01-13T04:41:11.495Z,8.40
2018-01-13T04:43:45.432Z,8.30
2018-01-13T04:46:20.068Z,8.00
2018-01-13T04:48:54.097Z,8.00
2018-01-13T04:51:28.736Z,8.50
2018-01-13T04:54:02.808Z,8.50
2018-01-13T04:56:36.760Z,8.60
2018-01-13T04:59:10.523Z,8.30
2018-01-13T05:01:45.166Z,8.10
2018-01-13T05:04:20.356Z,8.10
2018-01-13T05:06:54.584Z,8.00
2018-01-13T05:09:28.892Z,8.10
2018-01-13T05:12:02.852Z,8.40
2018-01-13T05:14:36.689Z,8.50
2018-01-13T05:17:10.468Z,8.40
2018-01-13T05:19:44.341Z,8.30
2018-01-13T05:22:18.161Z,8.40
2018-01-13T05:24:52.711Z,8.30
2018-01-13T05:27:26.610Z,8.30
2018-01-13T05:30:01.337Z,8.20
2018-01-13T05:32:35.178Z,8.20
2018-01-13T05:35:09.059Z,8.30
2018-01-13T05:37:42.884Z,8.10
2018-01-13T05:40:17.487Z,8.20
2018-01-13T05:42:51.831Z,8.20
2018-01-13T05:45:25.771Z,8.00
2018-01-13T05:48:00.511Z,7.90
2018-01-13T05:50:34.627Z,7.80
2018-01-13T05:53:08.379Z,8.00
2018-01-13T05:55:42.231Z,8.00
2018-01-13T05:58:16.373Z,8.10
2018-01-13T06:00:50.900Z,7.90
2018-01-13T06:03:26.675Z,8.00
2018-01-13T06:06:00.782Z,7.90
2018-01-13T06:08:34.443Z,7.90
2018-01-13T06:11:09.118Z,8.00
2018-01-13T06:13:43.280Z,8.00
2018-01-13T06:16:17.467Z,8.00
2018-01-13T06:18:51.743Z,8.20
2018-01-13T06:21:25.918Z,8.10
2018-01-13T06:24:00.371Z,8.00
2018-01-13T06:26:34.637Z,8.00
2018-01-13T06:29:09.196Z,8.00
2018-01-13T06:31:43.180Z,7.90
2018-01-13T06:34:17.815Z,8.10
2018-01-13T06:36:51.690Z,8.10
2018-01-13T06:39:26.386Z,8.10
2018-01-13T06:42:00.198Z,8.10
2018-01-13T06:44:34.772Z,8.10
2018-01-13T06:47:09.659Z,8.20
2018-01-13T06:49:43.651Z,8.20
2018-01-13T06:52:17.740Z,8.20
2018-01-13T06:54:52.277Z,8.30
2018-01-13T06:57:26.268Z,8.20
2018-01-13T07:00:00.810Z,8.30
2018-01-13T07:02:35.253Z,8.30
2018-01-13T07:05:10.552Z,7.60
2018-01-13T07:07:44.807Z,7.60
2018-01-13T07:10:18.456Z,7.90
2018-01-13T07:12:52.258Z,8.10
2018-01-13T07:15:26.960Z,8.10
2018-01-13T07:18:00.747Z,8.10
2018-01-13T07:20:35.368Z,8.20
2018-01-13T07:23:09.635Z,8.20
2018-01-13T07:25:44.224Z,8.40
2018-01-13T07:28:18.234Z,8.20
2018-01-13T07:30:52.357Z,8.30
2018-01-13T07:33:27.276Z,8.30
2018-01-13T07:36:01.156Z,8.30
2018-01-13T07:38:34.944Z,8.20
2018-01-13T07:41:08.940Z,8.20
2018-01-13T07:43:44.410Z,8.20
2018-01-13T07:46:18.456Z,8.30
2018-01-13T07:48:53.048Z,8.30
2018-01-13T07:51:27.869Z,8.30
2018-01-13T07:54:02.814Z,8.20
2018-01-13T07:56:37.614Z,8.20
2018-01-13T07:59:12.471Z,8.20
2018-01-13T08:01:46.402Z,8.20
2018-01-13T08:04:20.900Z,8.30
2018-01-13T08:06:55.007Z,8.30
2018-01-13T08:09:29.529Z,8.50
2018-01-13T08:12:03.549Z,8.40
2018-01-13T08:14:38.164Z,8.20
2018-01-13T08:17:12.155Z,8.20
2018-01-13T08:19:46.065Z,8.30
2018-01-13T08:22:19.842Z,8.30
2018-01-13T08:24:54.846Z,8.30
2018-01-13T08:27:29.501Z,8.30
2018-01-13T08:30:05.062Z,8.10
2018-01-13T08:32:39.333Z,8.10
2018-01-13T08:35:13.847Z,8.30
2018-01-13T08:37:48.720Z,8.40
2018-01-13T08:40:23.400Z,8.30
2018-01-13T08:42:57.741Z,8.30
2018-01-13T08:45:31.890Z,8.30
2018-01-13T08:48:06.418Z,8.20
2018-01-13T08:50:41.237Z,8.20
2018-01-13T08:53:16.203Z,8.00
2018-01-13T08:55:49.943Z,8.00
2018-01-13T08:58:24.634Z,8.30
2018-01-13T09:00:58.799Z,8.30
2018-01-13T09:03:32.561Z,8.20
2018-01-13T09:06:06.416Z,8.20
2018-01-13T09:08:41.152Z,8.30
2018-01-13T09:11:14.883Z,8.40
2018-01-13T09:13:48.589Z,8.40
2018-01-13T09:16:22.522Z,8.30
2018-01-13T09:18:58.034Z,8.30
2018-01-13T09:21:32.201Z,8.30
2018-01-13T09:24:06.202Z,8.40
2018-01-13T09:26:40.902Z,8.50
2018-01-13T09:29:14.698Z,8.50
2018-01-13T09:31:48.535Z,8.70
2018-01-13T09:34:23.013Z,8.60
2018-01-13T09:36:58.226Z,8.60
2018-01-13T09:39:32.280Z,8.60
2018-01-13T09:42:06.051Z,8.60
2018-01-13T09:44:40.081Z,8.60
2018-01-13T09:47:15.550Z,8.60
2018-01-13T09:49:49.393Z,8.60
2018-01-13T09:52:23.459Z,8.70
2018-01-13T09:54:57.381Z,8.70
2018-01-13T09:57:31.486Z,8.80
2018-01-13T10:00:06.367Z,8.70
2018-01-13T10:02:40.904Z,8.70
2018-01-13T10:05:14.749Z,8.80
2018-01-13T10:07:48.659Z,8.80
2018-01-13T10:10:22.401Z,8.90
2018-01-13T10:12:56.180Z,8.90
2018-01-13T10:15:30.842Z,8.90
2018-01-13T10:18:04.793Z,8.80
2018-01-13T10:20:39.278Z,9.00
2018-01-13T10:23:14.733Z,9.00
2018-01-13T10:25:49.333Z,9.00
2018-01-13T10:28:24.870Z,9.00
2018-01-13T10:31:00.041Z,9.10
2018-01-13T10:33:35.165Z,9.10
2018-01-13T10:36:09.273Z,9.10
2018-01-13T10:38:43.358Z,9.10
2018-01-13T10:41:17.142Z,9.00
2018-01-13T10:43:50.812Z,8.90
2018-01-13T10:46:24.616Z,8.90
2018-01-13T10:48:58.472Z,9.00
2018-01-13T10:51:33.079Z,9.20
2018-01-13T10:54:07.134Z,9.20
2018-01-13T10:56:40.932Z,9.20
2018-01-13T10:59:14.797Z,9.30
2018-01-13T11:01:48.785Z,9.20
2018-01-13T11:04:22.541Z,9.20
2018-01-13T11:06:56.820Z,9.10
2018-01-13T11:09:30.914Z,9.00
2018-01-13T11:12:04.708Z,9.10
2018-01-13T11:14:39.427Z,9.10
2018-01-13T11:17:13.186Z,9.00
2018-01-13T11:19:47.015Z,9.20
2018-01-13T11:22:20.873Z,9.10
2018-01-13T11:24:55.363Z,9.20
2018-01-13T11:27:29.524Z,9.20
2018-01-13T11:30:03.477Z,9.20
2018-01-13T11:32:38.651Z,9.40
2018-01-13T11:35:13.675Z,9.30
2018-01-13T11:37:47.598Z,9.30
2018-01-13T11:40:22.203Z,9.10
2018-01-13T11:42:56.233Z,9.10
2018-01-13T11:45:30.055Z,9.10
2018-01-13T11:48:03.951Z,9.20
2018-01-13T11:50:37.921Z,9.40
2018-01-13T11:53:11.761Z,9.40
2018-01-13T11:55:45.576Z,9.40
2018-01-13T11:58:19.589Z,9.40
2018-01-13T12:00:54.349Z,9.50
2018-01-13T12:03:28.892Z,9.30
2018-01-13T12:06:03.850Z,9.40
2018-01-13T12:08:38.551Z,9.30
2018-01-13T12:11:12.645Z,9.30
2018-01-13T12:13:46.533Z,9.30
2018-01-13T12:16:20.266Z,9.40
2018-01-13T12:18:54.247Z,9.30
2018-01-13T12:21:28.092Z,9.40
2018-01-13T12:24:02.112Z,9.20
2018-01-13T12:26:37.472Z,9.40
2018-01-13T12:29:11.505Z,9.40
2018-01-13T12:31:45.292Z,9.50
2018-01-13T12:34:18.993Z,9.50
2018-01-13T12:36:52.842Z,9.20
2018-01-13T12:39:26.595Z,9.30
2018-01-13T12:42:01.219Z,9.30
2018-01-13T12:44:35.260Z,9.30
2018-01-13T12:47:08.973Z,9.30
2018-01-13T12:49:42.767Z,9.30
2018-01-13T12:52:16.721Z,9.30
2018-01-13T12:54:51.498Z,9.30
2018-01-13T12:57:26.218Z,9.40
2018-01-13T13:00:00.238Z,9.40
2018-01-13T13:02:34.834Z,9.60
2018-01-13T13:05:08.696Z,9.60
2018-01-13T13:07:42.649Z,9.70
2018-01-13T13:10:17.219Z,9.70
2018-01-13T13:12:51.151Z,9.50
2018-01-13T13:15:24.958Z,9.70
2018-01-13T13:17:59.455Z,9.70
2018-01-13T13:20:33.491Z,9.70
2018-01-13T13:23:08.211Z,9.70
2018-01-13T13:25:42.033Z,9.70
2018-01-13T13:28:16.629Z,9.80
2018-01-13T13:30:51.101Z,9.50
2018-01-13T13:33:24.981Z,9.50
2018-01-13T13:35:59.539Z,9.50
2018-01-13T13:38:33.240Z,9.70
2018-01-13T13:41:07.946Z,9.60
2018-01-13T13:43:42.602Z,9.60
2018-01-13T13:46:16.533Z,9.60
2018-01-13T13:48:50.201Z,9.50
2018-01-13T13:51:24.787Z,9.80
2018-01-13T13:53:59.769Z,9.50
2018-01-13T13:56:33.747Z,9.50
2018-01-13T13:59:08.199Z,9.40
2018-01-13T14:01:42.993Z,9.50
2018-01-13T14:04:17.171Z,9.40
2018-01-13T14:06:51.737Z,9.40
2018-01-13T14:09:25.716Z,9.40
2018-01-13T14:12:00.359Z,9.20
2018-01-13T14:14:34.552Z,9.10
2018-01-13T14:17:08.188Z,9.30
2018-01-13T14:19:41.980Z,9.40
2018-01-13T14:22:16.413Z,9.30
2018-01-13T14:24:50.417Z,9.20
2018-01-13T14:27:24.399Z,9.60
2018-01-13T14:29:58.280Z,9.60
2018-01-13T14:32:32.048Z,9.20
2018-01-13T14:35:06.737Z,9.20
2018-01-13T14:37:41.320Z,9.30
2018-01-13T14:40:15.378Z,9.30
2018-01-13T14:42:49.817Z,9.20
2018-01-13T14:45:23.706Z,9.20
2018-01-13T14:47:58.236Z,9.30
2018-01-13T14:50:32.364Z,9.30
2018-01-13T14:53:06.775Z,9.10
2018-01-13T14:55:41.182Z,9.00
2018-01-13T14:58:15.833Z,9.00
2018-01-13T15:00:49.896Z,9.00
2018-01-13T15:03:26.592Z,9.10
2018-01-13T15:06:02.303Z,9.20
2018-01-13T15:08:37.289Z,9.20
2018-01-13T15:11:11.336Z,9.20
2018-01-13T15:13:45.026Z,9.20
2018-01-13T15:16:18.869Z,9.20
2018-01-13T15:18:52.604Z,9.10
2018-01-13T15:21:26.398Z,8.90
2018-01-13T15:24:00.951Z,8.80
2018-01-13T15:26:34.959Z,8.80
2018-01-13T15:29:09.485Z,9.10
2018-01-13T15:31:43.599Z,9.20
2018-01-13T15:34:18.016Z,9.00
2018-01-13T15:36:52.782Z,9.10
2018-01-13T15:39:26.773Z,9.00
2018-01-13T15:42:01.318Z,9.10
2018-01-13T15:44:35.220Z,9.10
2018-01-13T15:47:08.995Z,9.20
2018-01-13T15:49:43.817Z,9.40
2018-01-13T15:52:17.543Z,9.40
2018-01-13T15:54:51.556Z,9.40
2018-01-13T15:57:26.175Z,9.40
2018-01-13T16:00:00.212Z,9.40
2018-01-13T16:02:33.922Z,9.40
2018-01-13T16:05:07.603Z,9.40
2018-01-13T16:07:42.363Z,9.40
2018-01-13T16:10:16.916Z,9.40
2018-01-13T16:12:50.778Z,9.30
2018-01-13T16:15:24.685Z,9.20
2018-01-13T16:17:58.400Z,9.20
2018-01-13T16:20:32.124Z,9.40
2018-01-13T16:23:06.540Z,9.40
2018-01-13T16:25:40.752Z,9.40
2018-01-13T16:28:15.439Z,9.30
2018-01-13T16:30:49.472Z,9.30
2018-01-13T16:33:24.179Z,9.10
2018-01-13T16:35:58.087Z,9.10
2018-01-13T16:38:32.693Z,9.30
2018-01-13T16:41:06.757Z,9.30
2018-01-13T16:43:41.560Z,9.30
2018-01-13T16:46:15.377Z,9.10
2018-01-13T16:48:49.181Z,9.40
2018-01-13T16:51:23.765Z,9.40
2018-01-13T16:53:58.384Z,9.30
2018-01-13T16:56:32.403Z,9.30
2018-01-13T16:59:07.228Z,9.40
2018-01-13T17:01:41.272Z,9.40
2018-01-13T17:04:14.977Z,9.40
2018-01-13T17:06:49.532Z,9.30
2018-01-13T17:09:24.395Z,9.40
2018-01-13T17:11:58.996Z,9.20
2018-01-13T17:14:33.045Z,9.20
2018-01-13T17:17:07.673Z,9.20
2018-01-13T17:19:41.489Z,9.20
2018-01-13T17:22:15.279Z,9.20
2018-01-13T17:24:48.972Z,9.30
2018-01-13T17:27:22.797Z,9.30
2018-01-13T17:29:57.295Z,9.30
2018-01-13T17:32:32.014Z,9.30
2018-01-13T17:35:06.159Z,9.30
2018-01-13T17:37:39.958Z,9.20
2018-01-13T17:40:14.514Z,9.20
2018-01-13T17:42:48.465Z,9.40
2018-01-13T17:45:22.445Z,9.40
2018-01-13T17:47:57.179Z,9.40
2018-01-13T17:50:31.815Z,9.20
2018-01-13T17:53:05.829Z,9.20
2018-01-13T17:55:40.357Z,9.10
2018-01-13T17:58:15.163Z,9.00
2018-01-13T18:00:50.035Z,9.00
2018-01-13T18:03:25.408Z,9.00
2018-01-13T18:05:59.351Z,9.30
2018-01-13T18:08:33.873Z,9.30
2018-01-13T18:11:07.881Z,9.30
2018-01-13T18:13:42.480Z,9.30
2018-01-13T18:16:16.484Z,9.30
2018-01-13T18:18:51.167Z,9.30
2018-01-13T18:21:26.520Z,9.40
2018-01-13T18:24:00.536Z,9.40
2018-01-13T18:26:35.175Z,9.40
2018-01-13T18:29:10.549Z,9.10
2018-01-13T18:31:44.499Z,9.10
2018-01-13T18:34:19.014Z,9.30
2018-01-13T18:36:53.748Z,9.20
2018-01-13T18:39:27.830Z,9.20
2018-01-13T18:42:02.392Z,9.10
2018-01-13T18:44:36.579Z,9.10
2018-01-13T18:47:10.291Z,9.30
2018-01-13T18:49:44.066Z,9.30
2018-01-13T18:52:17.957Z,9.10
2018-01-13T18:54:52.504Z,9.20
2018-01-13T18:57:26.723Z,9.20
2018-01-13T19:00:00.509Z,9.40
2018-01-13T19:02:34.281Z,9.30
2018-01-13T19:05:08.970Z,9.10
2018-01-13T19:07:42.997Z,9.10
2018-01-13T19:10:16.802Z,9.30
2018-01-13T19:12:51.432Z,9.10
2018-01-13T19:15:26.221Z,9.10
2018-01-13T19:18:01.226Z,9.10
2018-01-13T19:20:35.267Z,9.10
2018-01-13T19:23:10.380Z,8.70
2018-01-13T19:25:45.334Z,8.90
2018-01-13T19:28:19.507Z,8.90
2018-01-13T19:30:53.361Z,8.90
2018-01-13T19:33:27.306Z,9.00
2018-01-13T19:36:01.870Z,8.90
2018-01-13T19:38:36.849Z,9.10
2018-01-13T19:41:10.804Z,9.10
2018-01-13T19:43:45.316Z,8.90
2018-01-13T19:46:20.083Z,8.90
2018-01-13T19:48:54.260Z,8.90
2018-01-13T19:51:28.795Z,8.80
2018-01-13T19:54:02.809Z,8.80
2018-01-13T19:56:37.400Z,8.70
2018-01-13T19:59:11.329Z,8.70
2018-01-13T20:01:45.122Z,8.90
2018-01-13T20:04:18.768Z,8.80
2018-01-13T20:06:52.460Z,8.90
2018-01-13T20:09:26.351Z,8.80
2018-01-13T20:12:00.016Z,8.70
2018-01-13T20:14:33.942Z,8.80
2018-01-13T20:17:07.597Z,8.60
2018-01-13T20:19:41.457Z,8.50
2018-01-13T20:22:15.136Z,8.30
2018-01-13T20:24:49.027Z,8.60
2018-01-13T20:27:22.833Z,8.70
2018-01-13T20:29:56.601Z,8.60
2018-01-13T20:32:30.397Z,8.30
2018-01-13T20:35:04.235Z,8.50
2018-01-13T20:37:38.837Z,8.70
2018-01-13T20:40:13.049Z,8.70
2018-01-13T20:42:47.596Z,8.70
2018-01-13T20:45:21.685Z,8.70
2018-01-13T20:47:55.531Z,8.60
2018-01-13T20:50:29.392Z,8.50
2018-01-13T20:53:04.122Z,8.40
2018-01-13T20:55:38.993Z,8.50
2018-01-13T20:58:12.850Z,8.50
2018-01-13T21:00:47.565Z,8.40
2018-01-13T21:03:23.844Z,8.50
2018-01-13T21:05:58.147Z,8.60
2018-01-13T21:08:31.979Z,8.60
2018-01-13T21:11:05.760Z,8.40
2018-01-13T21:13:40.346Z,8.50
2018-01-13T21:16:15.105Z,8.50
2018-01-13T21:18:50.073Z,8.50
2018-01-13T21:21:24.248Z,8.50
2018-01-13T21:23:57.968Z,8.50
2018-01-13T21:26:32.775Z,8.40
2018-01-13T21:29:07.372Z,8.40
2018-01-13T21:31:41.415Z,8.40
2018-01-13T21:34:15.196Z,8.50
2018-01-13T21:36:50.479Z,8.60
2018-01-13T21:39:24.984Z,8.70
2018-01-13T21:41:59.322Z,8.30
2018-01-13T21:44:33.388Z,8.30
2018-01-13T21:47:08.088Z,8.20
2018-01-13T21:49:53.690Z,8.40
2018-01-13T21:52:27.850Z,8.40
2018-01-13T21:55:01.711Z,8.40
2018-01-13T21:57:35.760Z,8.50
2018-01-13T22:00:10.192Z,8.50
2018-01-13T22:02:45.076Z,8.60
2018-01-13T22:05:19.251Z,8.60
2018-01-13T22:07:53.241Z,8.40
2018-01-13T22:10:27.355Z,8.40
2018-01-13T22:13:01.291Z,8.40
2018-01-13T22:15:35.404Z,8.40
2018-01-13T22:18:10.936Z,8.40
2018-01-13T22:20:44.960Z,8.40
2018-01-13T22:23:20.990Z,8.60
2018-01-13T22:25:55.047Z,8.40
2018-01-13T22:28:28.995Z,8.30
2018-01-13T22:31:04.529Z,8.50
2018-01-13T22:33:38.566Z,8.50
2018-01-13T22:36:13.564Z,8.40
2018-01-13T22:38:48.222Z,8.40
2018-01-13T22:41:22.953Z,8.30
2018-01-13T22:43:57.632Z,8.40
2018-01-13T22:46:31.587Z,8.40
2018-01-13T22:49:06.331Z,8.40
2018-01-13T22:51:40.999Z,8.60
2018-01-13T22:54:14.809Z,8.60
2018-01-13T22:56:48.608Z,8.50
2018-01-13T22:59:22.321Z,8.50
2018-01-13T23:01:57.056Z,8.50
2018-01-13T23:04:30.873Z,8.40
2018-01-13T23:07:04.593Z,8.40
2018-01-13T23:09:39.384Z,8.40
2018-01-13T23:12:13.538Z,8.50
2018-01-13T23:14:48.937Z,8.40
2018-01-13T23:17:22.902Z,8.40
2018-01-13T23:19:57.481Z,8.50
2018-01-13T23:22:31.484Z,8.50
2018-01-13T23:25:06.235Z,8.50
2018-01-13T23:27:40.109Z,8.50
2018-01-13T23:30:13.853Z,8.40
2018-01-13T23:32:47.795Z,8.30
2018-01-13T23:35:22.489Z,8.40
2018-01-13T23:37:56.285Z,8.40
2018-01-13T23:40:30.501Z,8.60
2018-01-13T23:43:05.853Z,8.60
2018-01-13T23:45:40.414Z,8.60
2018-01-13T23:48:14.132Z,8.50
2018-01-13T23:50:48.038Z,8.50
2018-01-13T23:53:22.769Z,8.30
2018-01-13T23:55:57.483Z,8.40
2018-01-13T23:58:32.917Z,8.40
